X  Schließen Metar Luftfahrt Wetterdaten     LEXJ Seve Ballesteros-Santander Airport
Temperatur
15°C Temperatur
13°C Taupunkt
88% Feuchtigkeit



Wind
5 KM/H
3 MPH
1 M/S
3 KTS



160°
SSO
Aktuelle Wetterlage

Teilweise bewölkt Teilweise bewölkt
Luftdruck 1024.92 (hPa) - 30.27 (inHg)
Sichtweite 6.2 (Meile) - 10 (km)
Flughafen
Flughafen Code LEXJ

Position : Seve Ballesteros-Santander Airport
Entfernung: 36 (km)

Metar:
LEXJ 221000Z 16003KT 110V190 9999 FEW008 SCT038 BKN055 15/13 Q1025

Zeit: 22-10-2021 12:00 CEST